createdAt,value
2018-04-13T00:01:30.055Z,45.37
2018-04-13T00:03:58.487Z,45.10
2018-04-13T00:06:26.144Z,45.37
2018-04-13T00:08:53.739Z,45.17
2018-04-13T00:11:21.345Z,44.33
2018-04-13T00:13:49.753Z,45.30
2018-04-13T00:16:17.849Z,45.03
2018-04-13T00:18:46.264Z,45.23
2018-04-13T00:21:13.846Z,44.83
2018-04-13T00:23:42.845Z,46.87
2018-04-13T00:26:11.244Z,47.90
2018-04-13T00:28:38.880Z,45.03
2018-04-13T00:31:06.771Z,48.10
2018-04-13T00:33:35.132Z,45.63
2018-04-13T00:36:02.808Z,44.07
2018-04-13T00:38:30.423Z,43.63
2018-04-13T00:40:58.941Z,46.20
2018-04-13T00:43:26.549Z,46.90
2018-04-13T00:45:54.173Z,46.90
2018-04-13T00:48:21.765Z,44.63
2018-04-13T00:50:49.347Z,46.43
2018-04-13T00:53:28.879Z,46.93
2018-04-13T00:55:57.239Z,46.57
2018-04-13T00:58:24.827Z,47.60
2018-04-13T01:00:53.831Z,49.00
2018-04-13T01:03:22.315Z,49.33
2018-04-13T01:05:50.679Z,49.20
2018-04-13T01:08:18.262Z,48.10
2018-04-13T01:10:46.634Z,46.03
2018-04-13T01:13:14.982Z,50.03
2018-04-13T01:15:43.290Z,49.47
2018-04-13T01:18:10.894Z,49.07
2018-04-13T01:20:38.469Z,48.13
2018-04-13T01:23:06.080Z,47.93
2018-04-13T01:25:33.668Z,47.67
2018-04-13T01:28:02.008Z,48.47
2018-04-13T01:30:29.606Z,47.67
2018-04-13T01:32:57.952Z,47.03
2018-04-13T01:35:25.537Z,45.57
2018-04-13T01:37:53.921Z,45.50
2018-04-13T01:40:21.507Z,45.40
2018-04-13T01:42:49.832Z,46.77
2018-04-13T01:45:17.419Z,47.73
2018-04-13T01:47:45.114Z,45.53
2018-04-13T01:50:13.488Z,45.77
2018-04-13T01:52:41.084Z,43.70
2018-04-13T01:55:08.668Z,44.50
2018-04-13T01:57:36.246Z,45.47
2018-04-13T02:00:03.859Z,43.83
2018-04-13T02:02:31.462Z,45.00
2018-04-13T02:04:59.034Z,42.20
2018-04-13T02:07:26.608Z,42.33
2018-04-13T02:09:54.175Z,43.97
2018-04-13T02:12:22.620Z,42.63
2018-04-13T02:14:50.183Z,41.93
2018-04-13T02:17:17.733Z,41.70
2018-04-13T02:19:46.115Z,40.20
2018-04-13T02:22:14.461Z,40.07
2018-04-13T02:24:42.020Z,42.17
2018-04-13T02:27:09.583Z,40.40
2018-04-13T02:29:37.159Z,40.10
2018-04-13T02:32:04.742Z,38.70
2018-04-13T02:34:32.425Z,38.80
2018-04-13T02:37:00.747Z,39.40
2018-04-13T02:39:28.623Z,38.90
2018-04-13T02:41:57.022Z,37.60
2018-04-13T02:44:24.604Z,37.20
2018-04-13T02:46:52.190Z,39.50
2018-04-13T02:49:20.550Z,37.50
2018-04-13T02:51:48.138Z,38.60
2018-04-13T02:54:16.488Z,37.27
2018-04-13T02:56:44.091Z,39.47
2018-04-13T02:59:12.443Z,37.53
2018-04-13T03:01:40.017Z,36.70
2018-04-13T03:04:07.620Z,36.77
2018-04-13T03:06:35.203Z,34.63
2018-04-13T03:09:02.800Z,36.67
2018-04-13T03:11:30.363Z,34.40
2018-04-13T03:13:57.931Z,35.87
2018-04-13T03:16:25.575Z,35.67
2018-04-13T03:18:53.184Z,37.23
2018-04-13T03:21:21.537Z,35.30
2018-04-13T03:23:49.100Z,35.53
2018-04-13T03:26:16.682Z,34.97
2018-04-13T03:28:44.255Z,35.57
2018-04-13T03:31:11.828Z,33.00
2018-04-13T03:33:40.168Z,33.17
2018-04-13T03:36:07.749Z,33.80
2018-04-13T03:38:35.330Z,33.87
2018-04-13T03:41:02.902Z,33.43
2018-04-13T03:43:30.471Z,33.63
2018-04-13T03:45:59.023Z,32.33
2018-04-13T03:48:26.589Z,33.97
2018-04-13T03:50:54.153Z,32.63
2018-04-13T03:53:21.725Z,32.17
2018-04-13T03:55:49.302Z,32.77
2018-04-13T03:58:16.882Z,32.20
2018-04-13T04:00:45.222Z,31.73
2018-04-13T04:03:12.793Z,32.20
2018-04-13T04:05:40.476Z,31.87
2018-04-13T04:08:08.043Z,30.43
2018-04-13T04:10:35.626Z,28.57
2018-04-13T04:13:04.021Z,28.00
2018-04-13T04:15:31.583Z,26.60
2018-04-13T04:17:59.174Z,24.77
2018-04-13T04:20:41.000Z,24.53
2018-04-13T04:23:20.314Z,22.83
2018-04-13T04:25:59.592Z,21.33
2018-04-13T04:28:28.386Z,20.17
2018-04-13T04:30:55.976Z,19.07
2018-04-13T04:33:23.764Z,17.40
2018-04-13T04:35:51.374Z,18.27
2018-04-13T04:38:18.980Z,17.30
2018-04-13T04:40:46.551Z,17.83
2018-04-13T04:43:14.172Z,19.70
2018-04-13T04:45:41.729Z,20.50
2018-04-13T04:48:09.341Z,23.63
2018-04-13T04:50:36.959Z,26.43
2018-04-13T04:53:04.540Z,26.07
2018-04-13T04:55:32.900Z,26.97
2018-04-13T04:58:00.487Z,28.67
2018-04-13T05:00:28.066Z,29.67
2018-04-13T05:02:56.395Z,31.77
2018-04-13T05:05:23.980Z,32.47
2018-04-13T05:07:51.540Z,32.10
2018-04-13T05:10:19.641Z,34.13
2018-04-13T05:12:48.833Z,31.27
2018-04-13T05:15:17.219Z,32.73
2018-04-13T05:17:44.796Z,32.80
2018-04-13T05:20:13.130Z,35.70
2018-04-13T05:22:40.698Z,39.17
2018-04-13T05:25:08.288Z,42.77
2018-04-13T05:27:35.870Z,40.50
2018-04-13T05:30:04.297Z,38.53
2018-04-13T05:32:31.897Z,36.37
2018-04-13T05:34:59.495Z,34.47
2018-04-13T05:37:28.292Z,33.27
2018-04-13T05:39:55.930Z,31.13
2018-04-13T05:42:23.516Z,30.67
2018-04-13T05:44:51.853Z,27.60
2018-04-13T05:47:19.446Z,25.40
2018-04-13T05:49:47.025Z,24.87
2018-04-13T05:52:15.358Z,24.27
2018-04-13T05:54:43.837Z,24.50
2018-04-13T05:57:11.401Z,24.90
2018-04-13T05:59:38.982Z,26.03
2018-04-13T06:02:06.604Z,26.37
2018-04-13T06:04:34.216Z,27.77
2018-04-13T06:07:01.831Z,28.60
2018-04-13T06:09:29.403Z,26.93
2018-04-13T06:11:57.727Z,27.13
2018-04-13T06:14:26.701Z,27.67
2018-04-13T06:16:54.329Z,28.20
2018-04-13T06:19:22.705Z,28.27
2018-04-13T06:21:50.363Z,27.87
2018-04-13T06:24:18.036Z,31.47
2018-04-13T06:26:45.589Z,33.40
2018-04-13T06:29:13.251Z,36.13
2018-04-13T06:31:40.926Z,34.33
2018-04-13T06:34:08.525Z,34.70
2018-04-13T06:36:36.218Z,33.47
2018-04-13T06:39:03.843Z,32.70
2018-04-13T06:41:32.175Z,30.70
2018-04-13T06:43:59.784Z,31.33
2018-04-13T06:46:27.413Z,32.67
2018-04-13T06:48:55.166Z,33.00
2018-04-13T06:51:22.776Z,35.30
2018-04-13T06:53:51.162Z,33.40
2018-04-13T06:56:19.364Z,33.90
2018-04-13T06:58:47.073Z,33.63
2018-04-13T07:01:14.732Z,35.80
2018-04-13T07:03:42.309Z,35.00
2018-04-13T07:06:09.937Z,35.23
2018-04-13T07:08:37.576Z,37.30
2018-04-13T07:11:05.191Z,35.80
2018-04-13T07:13:32.785Z,37.27
2018-04-13T07:16:00.441Z,37.27
2018-04-13T07:18:28.071Z,36.57
2018-04-13T07:20:55.694Z,35.97
2018-04-13T07:23:23.286Z,37.23
2018-04-13T07:25:51.639Z,36.77
2018-04-13T07:28:19.252Z,37.07
2018-04-13T07:30:46.879Z,36.10
2018-04-13T07:33:14.535Z,37.07
2018-04-13T07:35:42.702Z,36.30
2018-04-13T07:38:09.814Z,35.60
2018-04-13T07:40:37.403Z,36.67
2018-04-13T07:43:04.984Z,34.83
2018-04-13T07:45:32.595Z,35.70
2018-04-13T07:48:00.187Z,37.13
2018-04-13T07:50:27.771Z,36.90
2018-04-13T07:52:55.389Z,37.40
2018-04-13T07:55:23.095Z,38.40
2018-04-13T07:57:50.756Z,38.43
2018-04-13T08:00:18.410Z,38.40
2018-04-13T08:02:45.974Z,38.43
2018-04-13T08:05:13.597Z,38.80
2018-04-13T08:07:42.011Z,37.50
2018-04-13T08:10:09.601Z,40.27
2018-04-13T08:12:37.662Z,39.10
2018-04-13T08:15:04.827Z,39.30
2018-04-13T08:17:32.447Z,38.70
2018-04-13T08:20:01.163Z,38.87
2018-04-13T08:22:28.900Z,38.03
2018-04-13T08:24:57.295Z,39.20
2018-04-13T08:27:25.647Z,39.80
2018-04-13T08:29:53.307Z,40.60
2018-04-13T08:32:20.916Z,40.60
2018-04-13T08:34:48.560Z,39.33
2018-04-13T08:37:16.182Z,38.10
2018-04-13T08:39:44.679Z,39.53
2018-04-13T08:42:12.334Z,37.53
2018-04-13T08:44:39.989Z,38.37
2018-04-13T08:47:07.570Z,36.67
2018-04-13T08:49:35.182Z,36.03
2018-04-13T08:52:02.819Z,35.30
2018-04-13T08:54:30.421Z,35.63
2018-04-13T08:56:59.884Z,36.33
2018-04-13T08:59:27.511Z,36.27
2018-04-13T09:01:56.672Z,36.33
2018-04-13T09:04:24.268Z,36.23
2018-04-13T09:06:52.641Z,35.77
2018-04-13T09:09:21.090Z,36.23
2018-04-13T09:11:48.694Z,36.70
2018-04-13T09:14:16.326Z,35.47
2018-04-13T09:16:43.950Z,35.07
2018-04-13T09:19:11.572Z,36.07
2018-04-13T09:21:39.156Z,37.10
2018-04-13T09:24:07.557Z,37.87
2018-04-13T09:26:35.912Z,37.30
2018-04-13T09:29:03.510Z,37.90
2018-04-13T09:31:31.101Z,38.03
2018-04-13T09:33:58.687Z,35.80
2018-04-13T09:36:26.260Z,36.73
2018-04-13T09:38:53.879Z,37.00
2018-04-13T09:41:21.473Z,36.93
2018-04-13T09:43:49.081Z,38.60
2018-04-13T09:46:17.467Z,39.70
2018-04-13T09:48:45.803Z,36.77
2018-04-13T09:51:13.387Z,37.73
2018-04-13T09:53:41.027Z,37.83
2018-04-13T09:56:08.645Z,36.60
2018-04-13T09:58:36.274Z,36.07
2018-04-13T10:01:03.903Z,36.17
2018-04-13T10:03:37.233Z,36.00
2018-04-13T10:06:04.816Z,35.23
2018-04-13T10:08:32.422Z,34.73
2018-04-13T10:11:00.020Z,33.80
2018-04-13T10:13:27.614Z,33.80
2018-04-13T10:15:55.257Z,32.90
2018-04-13T10:18:22.890Z,33.97
2018-04-13T10:20:51.081Z,32.50
2018-04-13T10:23:18.805Z,32.83
2018-04-13T10:25:47.291Z,32.53
2018-04-13T10:28:15.546Z,29.53
2018-04-13T10:30:43.235Z,28.07
2018-04-13T10:33:10.856Z,28.73
2018-04-13T10:35:38.501Z,30.27
2018-04-13T10:38:06.143Z,28.63
2018-04-13T10:43:08.796Z,29.30
2018-04-13T10:45:38.662Z,29.60
2018-04-13T10:48:07.518Z,28.27
2018-04-13T10:50:35.260Z,28.10
2018-04-13T10:53:05.368Z,27.87
2018-04-13T10:55:33.708Z,29.03
2018-04-13T10:58:02.037Z,19.10
2018-04-13T11:00:29.674Z,16.53
2018-04-13T11:02:58.857Z,15.13
2018-04-13T11:05:26.542Z,15.60
2018-04-13T11:07:54.327Z,14.93
2018-04-13T11:10:24.446Z,15.03
2018-04-13T11:12:52.150Z,15.10
2018-04-13T11:15:20.133Z,15.73
2018-04-13T11:17:49.357Z,15.93
2018-04-13T11:20:17.818Z,16.33
2018-04-13T11:22:45.897Z,16.53
2018-04-13T11:25:13.868Z,16.33
2018-04-13T11:27:42.308Z,16.90
2018-04-13T11:30:10.707Z,16.80
2018-04-13T11:32:38.361Z,17.27
2018-04-13T11:35:06.749Z,16.73
2018-04-13T11:37:35.269Z,16.57
2018-04-13T11:40:02.929Z,16.80
2018-04-13T11:42:31.327Z,17.70
2018-04-13T11:44:58.955Z,17.57
2018-04-13T11:47:26.851Z,17.90
2018-04-13T11:49:54.528Z,18.60
2018-04-13T11:52:22.099Z,18.00
2018-04-13T11:54:49.719Z,17.80
2018-04-13T11:57:18.055Z,17.43
2018-04-13T11:59:45.653Z,17.73
2018-04-13T12:02:14.033Z,17.73
2018-04-13T12:04:42.395Z,16.87
2018-04-13T12:07:10.975Z,17.00
2018-04-13T12:09:38.689Z,15.27
2018-04-13T12:12:06.325Z,15.37
2018-04-13T12:14:34.648Z,15.30
2018-04-13T12:17:02.280Z,16.27
2018-04-13T12:19:30.671Z,14.73
2018-04-13T12:21:59.076Z,15.70
2018-04-13T12:24:26.719Z,14.87
2018-04-13T12:26:54.324Z,15.47
2018-04-13T12:29:21.931Z,14.60
2018-04-13T12:31:49.528Z,14.47
2018-04-13T12:34:17.920Z,12.90
2018-04-13T12:36:46.272Z,13.20
2018-04-13T12:39:13.874Z,14.70
2018-04-13T12:41:42.188Z,14.33
2018-04-13T12:44:09.801Z,14.87
2018-04-13T12:46:37.525Z,14.53
2018-04-13T12:49:05.122Z,14.90
2018-04-13T12:51:32.747Z,14.60
2018-04-13T12:54:00.446Z,15.77
2018-04-13T12:56:28.112Z,15.23
2018-04-13T12:58:55.768Z,15.10
2018-04-13T13:01:23.394Z,16.53
2018-04-13T13:03:51.022Z,17.40
2018-04-13T13:06:18.646Z,16.60
2018-04-13T13:08:46.938Z,17.87
2018-04-13T13:11:15.595Z,16.97
2018-04-13T13:13:43.214Z,17.73
2018-04-13T13:16:11.783Z,20.13
2018-04-13T13:18:40.351Z,19.87
2018-04-13T13:21:09.298Z,19.17
2018-04-13T13:23:40.375Z,21.10
2018-04-13T13:26:07.971Z,20.33
2018-04-13T13:28:35.645Z,20.83
2018-04-13T13:31:03.562Z,21.13
2018-04-13T13:33:31.754Z,21.70
2018-04-13T13:35:59.511Z,22.63
2018-04-13T13:38:27.738Z,23.37
2018-04-13T13:40:56.473Z,21.83
2018-04-13T13:43:24.895Z,23.03
2018-04-13T13:45:53.398Z,23.67
2018-04-13T13:48:25.504Z,24.30
2018-04-13T13:50:53.957Z,25.07
2018-04-13T13:53:21.629Z,26.40
2018-04-13T13:55:50.352Z,27.33
2018-04-13T13:58:18.749Z,27.60
2018-04-13T14:00:49.200Z,28.53
2018-04-13T14:03:16.850Z,28.87
2018-04-13T14:05:44.544Z,29.30
2018-04-13T14:08:13.485Z,29.10
2018-04-13T14:10:41.225Z,29.93
2018-04-13T14:13:09.538Z,30.57
2018-04-13T14:15:38.053Z,31.63
2018-04-13T14:18:05.659Z,31.50
2018-04-13T14:20:33.591Z,32.37
2018-04-13T14:23:01.212Z,31.83
2018-04-13T14:25:29.711Z,30.10
2018-04-13T14:27:57.349Z,30.53
2018-04-13T14:30:25.015Z,31.20
2018-04-13T14:32:53.330Z,32.63
2018-04-13T14:35:20.926Z,32.83
2018-04-13T14:37:48.551Z,31.87
2018-04-13T14:40:16.136Z,32.93
2018-04-13T14:42:45.449Z,32.17
2018-04-13T14:45:13.139Z,32.17
2018-04-13T14:47:40.975Z,30.60
2018-04-13T14:50:09.406Z,30.80
2018-04-13T14:52:36.971Z,30.17
2018-04-13T14:55:04.610Z,30.93
2018-04-13T14:57:32.205Z,30.93
2018-04-13T14:59:59.873Z,30.73
2018-04-13T15:02:27.545Z,30.63
2018-04-13T15:04:55.183Z,32.07
2018-04-13T15:07:22.772Z,31.43
2018-04-13T15:09:50.365Z,30.50
2018-04-13T15:12:18.016Z,31.00
2018-04-13T15:14:46.224Z,30.13
2018-04-13T15:17:14.150Z,30.40
2018-04-13T15:19:41.786Z,28.80
2018-04-13T15:22:10.152Z,29.30
2018-04-13T15:24:38.550Z,30.87
2018-04-13T15:27:06.146Z,30.30
2018-04-13T15:29:34.672Z,29.67
2018-04-13T15:32:02.322Z,31.27
2018-04-13T15:34:30.011Z,30.63
2018-04-13T15:36:57.687Z,31.40
2018-04-13T15:39:26.128Z,31.70
2018-04-13T15:41:53.765Z,32.33
2018-04-13T15:44:21.487Z,31.77
2018-04-13T15:46:49.089Z,31.80
2018-04-13T15:49:16.732Z,33.03
2018-04-13T15:51:45.120Z,32.50
2018-04-13T15:54:13.479Z,32.80
2018-04-13T15:56:41.118Z,31.83
2018-04-13T15:59:08.730Z,30.80
2018-04-13T16:01:36.379Z,31.70
2018-04-13T16:04:03.982Z,32.70
2018-04-13T16:06:31.607Z,30.73
2018-04-13T16:08:59.228Z,31.50
2018-04-13T16:11:26.828Z,30.47
2018-04-13T16:13:54.462Z,31.93
2018-04-13T16:16:22.120Z,31.80
2018-04-13T16:18:49.711Z,32.23
2018-04-13T16:21:17.310Z,30.50
2018-04-13T16:23:44.981Z,31.57
2018-04-13T16:26:12.588Z,31.17
2018-04-13T16:28:40.187Z,30.70
2018-04-13T16:31:07.831Z,30.67
2018-04-13T16:33:35.434Z,30.60
2018-04-13T16:36:03.074Z,30.43
2018-04-13T16:38:30.654Z,30.97
2018-04-13T16:40:58.264Z,31.93
2018-04-13T16:43:26.675Z,29.97
2018-04-13T16:45:54.308Z,30.80
2018-04-13T16:48:23.900Z,32.10
2018-04-13T16:50:51.603Z,31.30
2018-04-13T16:53:19.190Z,32.63
2018-04-13T16:55:46.786Z,31.17
2018-04-13T16:58:14.381Z,33.03
2018-04-13T17:00:42.742Z,32.47
2018-04-13T17:03:10.380Z,35.73
2018-04-13T17:05:38.141Z,32.57
2018-04-13T17:08:06.507Z,32.83
2018-04-13T17:10:34.084Z,33.87
2018-04-13T17:13:01.684Z,33.27
2018-04-13T17:15:29.306Z,32.70
2018-04-13T17:17:56.969Z,33.43
2018-04-13T17:20:24.594Z,32.60
2018-04-13T17:22:52.207Z,33.13
2018-04-13T17:25:19.796Z,39.37
2018-04-13T17:27:47.378Z,36.67
2018-04-13T17:30:14.978Z,36.87
2018-04-13T17:32:43.366Z,46.57
2018-04-13T17:35:10.939Z,39.00
2018-04-13T17:37:38.528Z,34.93
2018-04-13T17:40:06.113Z,48.83
2018-04-13T17:42:33.711Z,39.77
2018-04-13T17:45:02.178Z,34.97
2018-04-13T17:47:29.838Z,34.43
2018-04-13T17:49:57.400Z,35.73
2018-04-13T17:52:24.991Z,34.13
2018-04-13T17:54:53.337Z,32.37
2018-04-13T17:57:20.945Z,32.50
2018-04-13T17:59:49.287Z,32.13
2018-04-13T18:02:16.887Z,32.63
2018-04-13T18:04:44.491Z,33.30
2018-04-13T18:07:12.090Z,32.60
2018-04-13T18:09:39.690Z,32.87
2018-04-13T18:12:08.513Z,34.23
2018-04-13T18:14:36.113Z,32.77
2018-04-13T18:17:04.662Z,33.27
2018-04-13T18:19:32.238Z,32.80
2018-04-13T18:22:00.717Z,33.63
2018-04-13T18:24:28.315Z,34.03
2018-04-13T18:26:55.897Z,34.07
2018-04-13T18:29:23.477Z,32.73
2018-04-13T18:31:51.949Z,32.90
2018-04-13T18:34:19.540Z,33.53
2018-04-13T18:36:47.180Z,39.27
2018-04-13T18:39:14.779Z,42.27
2018-04-13T18:41:42.377Z,44.57
2018-04-13T18:44:09.984Z,39.00
2018-04-13T18:46:37.574Z,37.70
2018-04-13T18:49:05.147Z,38.23
2018-04-13T18:51:32.735Z,35.97
2018-04-13T18:54:00.330Z,33.70
2018-04-13T18:56:27.921Z,33.37
2018-04-13T18:58:56.986Z,33.70
2018-04-13T19:01:24.565Z,32.43
2018-04-13T19:03:52.237Z,33.40
2018-04-13T19:06:19.820Z,33.20
2018-04-13T19:08:47.390Z,32.43
2018-04-13T19:11:15.756Z,32.67
2018-04-13T19:13:44.096Z,34.37
2018-04-13T19:16:11.668Z,33.23
2018-04-13T19:18:39.271Z,32.40
2018-04-13T19:21:07.699Z,32.57
2018-04-13T19:23:35.304Z,33.53
2018-04-13T19:26:02.881Z,34.07
2018-04-13T19:28:31.235Z,33.87
2018-04-13T19:30:58.795Z,32.63
2018-04-13T19:33:27.219Z,33.10
2018-04-13T19:35:55.662Z,33.17
2018-04-13T19:38:23.237Z,34.60
2018-04-13T19:40:51.690Z,34.97
2018-04-13T19:43:19.260Z,32.30
2018-04-13T19:45:46.896Z,34.17
2018-04-13T19:48:14.458Z,32.37
2018-04-13T19:50:42.108Z,32.57
2018-04-13T19:53:10.462Z,32.60
2018-04-13T19:55:38.097Z,33.97
2018-04-13T19:58:06.468Z,34.73
2018-04-13T20:00:34.043Z,34.33
2018-04-13T20:03:01.657Z,39.37
2018-04-13T20:05:29.942Z,41.07
2018-04-13T20:07:57.530Z,43.07
2018-04-13T20:10:25.882Z,44.33
2018-04-13T20:12:53.596Z,48.67
2018-04-13T20:15:28.159Z,46.93
2018-04-13T20:17:56.609Z,49.00
2018-04-13T20:20:24.196Z,49.93
2018-04-13T20:22:51.786Z,49.47
2018-04-13T20:25:19.436Z,51.13
2018-04-13T20:27:47.072Z,50.90
2018-04-13T20:30:15.456Z,50.17
2018-04-13T20:32:43.135Z,49.47
2018-04-13T20:35:10.788Z,47.57
2018-04-13T20:37:38.466Z,45.03
2018-04-13T20:40:07.334Z,38.17
2018-04-13T20:42:34.954Z,39.20
2018-04-13T20:45:02.561Z,42.37
2018-04-13T20:47:30.135Z,42.27
2018-04-13T20:49:57.711Z,41.27
2018-04-13T20:52:25.343Z,40.13
2018-04-13T20:54:52.923Z,39.30
2018-04-13T20:57:21.289Z,38.10
2018-04-13T20:59:48.877Z,39.20
2018-04-13T21:02:16.459Z,38.27
2018-04-13T21:04:44.071Z,39.33
2018-04-13T21:07:11.653Z,39.07
2018-04-13T21:09:39.220Z,40.30
2018-04-13T21:12:07.557Z,38.60
2018-04-13T21:14:35.147Z,38.90
2018-04-13T21:17:03.532Z,41.17
2018-04-13T21:19:31.992Z,37.40
2018-04-13T21:21:59.580Z,38.13
2018-04-13T21:24:27.188Z,36.53
2018-04-13T21:26:54.764Z,38.77
2018-04-13T21:29:22.708Z,38.63
2018-04-13T21:31:51.059Z,36.37
2018-04-13T21:34:18.648Z,36.00
2018-04-13T21:36:46.220Z,37.37
2018-04-13T21:39:13.821Z,36.77
2018-04-13T21:41:42.580Z,35.87
2018-04-13T21:44:10.157Z,37.33
2018-04-13T21:46:37.715Z,37.13
2018-04-13T21:49:05.305Z,38.07
2018-04-13T21:51:33.129Z,36.67
2018-04-13T21:54:00.706Z,35.07
2018-04-13T21:56:29.028Z,35.23
2018-04-13T21:58:57.387Z,36.53
2018-04-13T22:01:24.962Z,36.17
2018-04-13T22:03:53.096Z,36.80
2018-04-13T22:06:20.693Z,36.50
2018-04-13T22:08:49.479Z,35.93
2018-04-13T22:11:19.168Z,36.90
2018-04-13T22:13:46.784Z,37.47
2018-04-13T22:16:14.352Z,37.67
2018-04-13T22:18:43.316Z,37.13
2018-04-13T22:21:11.686Z,37.40
2018-04-13T22:23:40.025Z,37.93
2018-04-13T22:26:07.624Z,37.03
2018-04-13T22:28:35.224Z,38.97
2018-04-13T22:31:02.901Z,39.10
2018-04-13T22:33:30.473Z,38.23
2018-04-13T22:35:58.039Z,40.13
2018-04-13T22:38:25.613Z,40.33
2018-04-13T22:40:53.188Z,41.97
2018-04-13T22:43:20.761Z,44.00
2018-04-13T22:45:48.333Z,46.03
2018-04-13T22:48:15.954Z,45.60
2018-04-13T22:50:43.536Z,45.33
2018-04-13T22:53:11.106Z,49.27
2018-04-13T22:55:38.702Z,50.90
2018-04-13T22:58:06.272Z,52.20
2018-04-13T23:00:33.872Z,50.00
2018-04-13T23:03:01.471Z,48.57
2018-04-13T23:05:29.089Z,46.30
2018-04-13T23:07:57.435Z,46.87
2018-04-13T23:10:25.025Z,43.97
2018-04-13T23:12:52.587Z,44.27
2018-04-13T23:15:20.978Z,43.43
2018-04-13T23:17:49.728Z,43.50
2018-04-13T23:20:17.305Z,42.30
2018-04-13T23:22:44.868Z,42.20
2018-04-13T23:25:12.454Z,42.10
2018-04-13T23:27:40.026Z,42.83
2018-04-13T23:30:07.593Z,43.03
2018-04-13T23:32:35.936Z,42.30
2018-04-13T23:35:03.565Z,41.73
2018-04-13T23:37:31.150Z,40.50
2018-04-13T23:39:58.730Z,40.17
2018-04-13T23:42:27.032Z,37.77
2018-04-13T23:44:54.625Z,39.47
2018-04-13T23:47:23.769Z,39.40
2018-04-13T23:49:51.413Z,37.83
2018-04-13T23:52:18.988Z,37.53
2018-04-13T23:54:46.565Z,38.17
2018-04-13T23:57:14.131Z,37.33
2018-04-13T23:59:41.723Z,40.37
